createdAt,value
2019-03-27T00:00:13.038Z,0.00
2019-03-27T00:01:13.046Z,0.00
2019-03-27T00:02:13.032Z,0.00
2019-03-27T00:03:13.024Z,0.00
2019-03-27T00:04:12.994Z,0.00
2019-03-27T00:05:12.982Z,0.00
2019-03-27T00:06:12.974Z,0.00
2019-03-27T00:07:12.954Z,0.00
2019-03-27T00:08:12.975Z,0.00
2019-03-27T00:09:12.931Z,0.00
2019-03-27T00:10:12.921Z,0.00
2019-03-27T00:11:15.971Z,0.00
2019-03-27T00:12:12.911Z,0.00
2019-03-27T00:13:12.896Z,0.00
2019-03-27T00:14:12.906Z,0.00
2019-03-27T00:15:13.851Z,0.00
2019-03-27T00:16:12.860Z,0.00
2019-03-27T00:17:12.850Z,0.00
2019-03-27T00:18:12.829Z,0.00
2019-03-27T00:19:12.849Z,0.00
2019-03-27T00:20:12.845Z,0.00
2019-03-27T00:21:12.815Z,0.00
2019-03-27T00:22:12.797Z,0.00
2019-03-27T00:23:12.793Z,0.00
2019-03-27T00:24:12.816Z,0.00
2019-03-27T00:25:12.765Z,0.00
2019-03-27T00:26:12.775Z,0.00
2019-03-27T00:27:12.752Z,0.00
2019-03-27T00:28:12.736Z,0.00
2019-03-27T00:29:12.764Z,0.00
2019-03-27T00:30:12.709Z,0.00
2019-03-27T00:31:12.702Z,0.00
2019-03-27T00:32:12.701Z,0.00
2019-03-27T00:33:12.697Z,0.00
2019-03-27T00:34:12.674Z,0.00
2019-03-27T00:35:12.696Z,0.00
2019-03-27T00:36:12.646Z,0.00
2019-03-27T00:37:12.634Z,0.00
2019-03-27T00:38:12.634Z,0.00
2019-03-27T00:39:12.625Z,0.00
2019-03-27T00:40:12.632Z,0.00
2019-03-27T00:41:12.628Z,0.00
2019-03-27T00:42:12.595Z,0.00
2019-03-27T00:43:12.574Z,0.00
2019-03-27T00:44:12.568Z,0.00
2019-03-27T00:45:25.434Z,0.00
2019-03-27T00:46:13.581Z,0.00
2019-03-27T00:47:12.533Z,0.00
2019-03-27T00:48:12.521Z,0.00
2019-03-27T00:49:12.508Z,0.00
2019-03-27T00:50:12.517Z,0.00
2019-03-27T00:51:12.487Z,0.00
2019-03-27T00:52:12.509Z,0.00
2019-03-27T00:53:12.477Z,0.00
2019-03-27T00:54:12.456Z,0.00
2019-03-27T00:55:12.453Z,0.00
2019-03-27T00:56:12.454Z,0.00
2019-03-27T00:57:12.459Z,0.00
2019-03-27T00:58:12.428Z,0.00
2019-03-27T00:59:12.416Z,0.00
2019-03-27T01:00:12.391Z,0.00
2019-03-27T01:01:12.383Z,0.00
2019-03-27T01:02:12.403Z,0.00
2019-03-27T01:03:12.362Z,0.00
2019-03-27T01:04:12.352Z,0.00
2019-03-27T01:05:12.345Z,0.00
2019-03-27T01:06:12.336Z,0.00
2019-03-27T01:07:12.336Z,0.00
2019-03-27T01:08:12.304Z,0.00
2019-03-27T01:09:12.298Z,0.00
2019-03-27T01:10:12.300Z,0.00
2019-03-27T01:11:12.282Z,0.00
2019-03-27T01:12:12.286Z,0.00
2019-03-27T01:13:12.304Z,0.00
2019-03-27T01:14:12.243Z,0.00
2019-03-27T01:15:12.243Z,0.00
2019-03-27T01:16:12.244Z,0.00
2019-03-27T01:17:12.228Z,0.00
2019-03-27T01:18:12.209Z,0.00
2019-03-27T01:19:12.235Z,0.00
2019-03-27T01:20:12.201Z,0.00
2019-03-27T01:21:12.185Z,0.00
2019-03-27T01:22:12.163Z,0.00
2019-03-27T01:23:12.160Z,0.00
2019-03-27T01:24:12.149Z,0.00
2019-03-27T01:25:12.162Z,0.00
2019-03-27T01:26:20.225Z,0.00
2019-03-27T01:27:12.121Z,0.00
2019-03-27T01:28:12.101Z,0.00
2019-03-27T01:29:12.120Z,0.00
2019-03-27T01:30:12.083Z,0.00
2019-03-27T01:31:12.063Z,0.00
2019-03-27T01:32:12.050Z,0.00
2019-03-27T01:33:12.044Z,0.00
2019-03-27T01:34:12.035Z,0.00
2019-03-27T01:35:12.052Z,0.00
2019-03-27T01:36:12.025Z,0.00
2019-03-27T01:37:12.006Z,0.00
2019-03-27T01:38:11.992Z,0.00
2019-03-27T01:39:11.982Z,0.00
2019-03-27T01:40:11.993Z,0.00
2019-03-27T01:41:11.966Z,0.00
2019-03-27T01:42:11.956Z,0.00
2019-03-27T01:43:11.942Z,0.00
2019-03-27T01:44:11.933Z,0.00
2019-03-27T01:45:11.947Z,0.00
2019-03-27T01:46:11.918Z,0.00
2019-03-27T01:47:11.902Z,0.00
2019-03-27T01:48:11.895Z,0.00
2019-03-27T01:49:11.880Z,0.00
2019-03-27T01:50:11.892Z,0.00
2019-03-27T01:51:11.857Z,0.00
2019-03-27T01:52:11.858Z,0.00
2019-03-27T01:53:11.834Z,0.00
2019-03-27T01:54:11.827Z,0.00
2019-03-27T01:55:11.818Z,0.00
2019-03-27T01:56:11.832Z,0.00
2019-03-27T01:57:11.807Z,0.00
2019-03-27T01:58:11.796Z,0.00
2019-03-27T01:59:11.783Z,0.00
2019-03-27T02:00:11.764Z,0.00
2019-03-27T02:01:11.771Z,0.00
2019-03-27T02:02:11.739Z,0.00
2019-03-27T02:03:11.746Z,0.00
2019-03-27T02:04:11.719Z,0.00
2019-03-27T02:05:11.705Z,0.00
2019-03-27T02:06:11.706Z,0.00
2019-03-27T02:07:11.719Z,0.00
2019-03-27T02:08:11.681Z,0.00
2019-03-27T02:09:11.684Z,0.00
2019-03-27T02:10:11.653Z,0.00
2019-03-27T02:11:11.652Z,0.00
2019-03-27T02:12:11.659Z,0.00
2019-03-27T02:13:11.651Z,0.00
2019-03-27T02:14:11.620Z,0.00
2019-03-27T02:15:11.610Z,0.00
2019-03-27T02:16:11.596Z,0.00
2019-03-27T02:17:11.588Z,0.00
2019-03-27T02:18:11.601Z,0.00
2019-03-27T02:19:11.571Z,0.00
2019-03-27T02:20:11.562Z,0.00
2019-03-27T02:21:11.551Z,0.00
2019-03-27T02:22:11.535Z,0.00
2019-03-27T02:23:11.541Z,0.00
2019-03-27T02:24:11.534Z,0.00
2019-03-27T02:25:11.518Z,0.00
2019-03-27T02:26:11.497Z,0.00
2019-03-27T02:27:11.496Z,0.00
2019-03-27T02:28:11.467Z,0.00
2019-03-27T02:29:11.454Z,0.00
2019-03-27T02:30:11.496Z,0.00
2019-03-27T02:31:11.444Z,0.00
2019-03-27T02:32:11.437Z,0.00
2019-03-27T02:33:11.434Z,0.00
2019-03-27T02:34:11.430Z,0.00
2019-03-27T02:35:11.416Z,0.00
2019-03-27T02:36:11.384Z,0.00
2019-03-27T02:37:11.374Z,0.00
2019-03-27T02:38:11.374Z,0.00
2019-03-27T02:39:11.360Z,0.00
2019-03-27T02:40:11.366Z,0.00
2019-03-27T02:41:11.342Z,0.00
2019-03-27T02:42:11.318Z,0.00
2019-03-27T02:43:11.318Z,0.00
2019-03-27T02:44:11.306Z,0.00
2019-03-27T02:45:11.335Z,0.00
2019-03-27T02:46:23.600Z,0.00
2019-03-27T02:47:12.269Z,0.00
2019-03-27T02:48:13.927Z,0.00
2019-03-27T02:49:11.249Z,0.00
2019-03-27T02:50:11.245Z,0.00
2019-03-27T02:51:11.276Z,0.00
2019-03-27T02:52:11.237Z,0.00
2019-03-27T02:53:11.218Z,0.00
2019-03-27T02:54:11.198Z,0.00
2019-03-27T02:55:11.186Z,0.00
2019-03-27T02:56:11.205Z,0.00
2019-03-27T02:57:11.162Z,0.00
2019-03-27T02:58:11.163Z,0.00
2019-03-27T02:59:11.146Z,0.00
2019-03-27T03:00:11.159Z,0.00
2019-03-27T03:01:11.132Z,0.00
2019-03-27T03:02:11.664Z,0.00
2019-03-27T03:03:11.124Z,0.00
2019-03-27T03:04:11.100Z,0.00
2019-03-27T03:05:11.110Z,0.00
2019-03-27T03:06:11.161Z,0.00
2019-03-27T03:07:11.095Z,0.00
2019-03-27T03:08:11.132Z,0.00
2019-03-27T03:09:11.052Z,0.00
2019-03-27T03:10:11.042Z,0.00
2019-03-27T03:11:11.048Z,0.00
2019-03-27T03:12:11.015Z,0.00
2019-03-27T03:13:11.026Z,0.00
2019-03-27T03:14:11.003Z,0.00
2019-03-27T03:15:11.013Z,0.00
2019-03-27T03:16:10.983Z,0.00
2019-03-27T03:17:10.994Z,0.00
2019-03-27T03:18:10.994Z,0.00
2019-03-27T03:19:10.947Z,0.00
2019-03-27T03:20:10.954Z,0.00
2019-03-27T03:21:10.935Z,0.00
2019-03-27T03:22:10.918Z,0.00
2019-03-27T03:23:10.947Z,0.00
2019-03-27T03:24:10.890Z,0.00
2019-03-27T03:25:10.893Z,0.00
2019-03-27T03:26:10.888Z,0.00
2019-03-27T03:27:10.888Z,0.00
2019-03-27T03:28:10.889Z,0.00
2019-03-27T03:29:10.841Z,0.00
2019-03-27T03:30:10.840Z,0.00
2019-03-27T03:31:10.835Z,0.00
2019-03-27T03:32:10.818Z,0.00
2019-03-27T03:33:10.821Z,0.00
2019-03-27T03:34:10.846Z,0.00
2019-03-27T03:35:10.783Z,0.00
2019-03-27T03:36:10.768Z,0.00
2019-03-27T03:37:10.761Z,0.00
2019-03-27T03:38:10.760Z,0.00
2019-03-27T03:39:10.739Z,0.00
2019-03-27T03:40:10.770Z,0.00
2019-03-27T03:41:10.718Z,0.00
2019-03-27T03:42:10.696Z,0.00
2019-03-27T03:43:10.691Z,0.00
2019-03-27T03:44:10.686Z,0.00
2019-03-27T03:45:10.668Z,0.00
2019-03-27T03:46:10.693Z,0.00
2019-03-27T03:47:10.647Z,0.00
2019-03-27T03:48:10.628Z,0.00
2019-03-27T03:49:10.623Z,0.00
2019-03-27T03:50:10.642Z,0.00
2019-03-27T03:51:10.604Z,0.00
2019-03-27T03:52:10.594Z,0.00
2019-03-27T03:53:10.587Z,0.00
2019-03-27T03:54:10.568Z,0.00
2019-03-27T03:55:10.668Z,0.00
2019-03-27T03:56:10.552Z,0.00
2019-03-27T03:57:10.531Z,0.00
2019-03-27T03:58:10.595Z,0.00
2019-03-27T03:59:10.521Z,0.00
2019-03-27T04:00:10.569Z,0.00
2019-03-27T04:01:10.517Z,0.00
2019-03-27T04:02:10.487Z,0.00
2019-03-27T04:03:10.466Z,0.00
2019-03-27T04:04:10.478Z,0.00
2019-03-27T04:05:10.458Z,0.00
2019-03-27T04:06:10.461Z,0.00
2019-03-27T04:07:10.428Z,0.00
2019-03-27T04:08:10.423Z,0.00
2019-03-27T04:09:10.403Z,0.00
2019-03-27T04:10:10.403Z,0.00
2019-03-27T04:11:10.416Z,0.00
2019-03-27T04:12:10.404Z,0.00
2019-03-27T04:13:10.381Z,0.00
2019-03-27T04:14:10.359Z,0.00
2019-03-27T04:15:10.348Z,0.00
2019-03-27T04:16:10.335Z,0.00
2019-03-27T04:17:17.682Z,0.00
2019-03-27T04:18:11.322Z,0.00
2019-03-27T04:19:10.308Z,0.00
2019-03-27T04:20:10.297Z,0.00
2019-03-27T04:21:10.283Z,0.00
2019-03-27T04:22:10.280Z,0.00
2019-03-27T04:23:10.305Z,0.00
2019-03-27T04:24:10.258Z,4.00
2019-03-27T04:25:10.249Z,4.00
2019-03-27T04:26:10.924Z,4.00
2019-03-27T04:27:10.218Z,0.00
2019-03-27T04:28:10.212Z,0.00
2019-03-27T04:29:10.233Z,4.00
2019-03-27T04:30:10.212Z,4.00
2019-03-27T04:31:10.189Z,4.00
2019-03-27T04:32:10.176Z,4.00
2019-03-27T04:33:10.162Z,4.00
2019-03-27T04:34:10.149Z,8.00
2019-03-27T04:35:10.151Z,12.00
2019-03-27T04:36:10.142Z,8.00
2019-03-27T04:37:10.139Z,16.00
2019-03-27T04:38:10.128Z,16.00
2019-03-27T04:39:10.093Z,16.00
2019-03-27T04:40:10.085Z,16.00
2019-03-27T04:41:10.076Z,20.00
2019-03-27T04:42:10.094Z,24.00
2019-03-27T04:43:10.060Z,28.00
2019-03-27T04:44:10.048Z,36.00
2019-03-27T04:45:10.037Z,48.00
2019-03-27T04:46:10.027Z,52.00
2019-03-27T04:47:10.051Z,60.00
2019-03-27T04:48:10.008Z,64.00
2019-03-27T04:49:09.994Z,68.00
2019-03-27T04:50:09.987Z,72.00
2019-03-27T04:51:09.975Z,88.00
2019-03-27T04:52:09.960Z,116.00
2019-03-27T04:53:09.980Z,132.00
2019-03-27T04:54:09.955Z,132.00
2019-03-27T04:55:09.934Z,120.00
2019-03-27T04:56:09.930Z,144.00
2019-03-27T04:57:09.918Z,168.00
2019-03-27T04:58:09.895Z,172.00
2019-03-27T04:59:09.906Z,216.00
2019-03-27T05:00:09.905Z,284.00
2019-03-27T05:01:09.871Z,336.00
2019-03-27T05:02:09.861Z,356.00
2019-03-27T05:03:09.851Z,308.00
2019-03-27T05:04:09.847Z,288.00
2019-03-27T05:05:09.876Z,316.00
2019-03-27T05:06:09.814Z,392.00
2019-03-27T05:07:09.815Z,416.00
2019-03-27T05:08:09.800Z,424.00
2019-03-27T05:09:09.825Z,420.00
2019-03-27T05:10:09.776Z,388.00
2019-03-27T05:11:09.778Z,356.00
2019-03-27T05:12:09.753Z,396.00
2019-03-27T05:13:09.750Z,380.00
2019-03-27T05:14:09.738Z,408.00
2019-03-27T05:15:09.751Z,428.00
2019-03-27T05:16:09.727Z,376.00
2019-03-27T05:17:09.718Z,408.00
2019-03-27T05:18:09.692Z,464.00
2019-03-27T05:19:09.686Z,544.00
2019-03-27T05:20:09.703Z,432.00
2019-03-27T05:21:09.661Z,356.00
2019-03-27T05:22:09.660Z,332.00
2019-03-27T05:23:09.658Z,320.00
2019-03-27T05:24:09.625Z,376.00
2019-03-27T05:25:09.617Z,368.00
2019-03-27T05:26:09.632Z,416.00
2019-03-27T05:27:09.603Z,376.00
2019-03-27T05:28:09.592Z,416.00
2019-03-27T05:29:09.584Z,448.00
2019-03-27T05:30:09.575Z,488.00
2019-03-27T05:31:09.576Z,436.00
2019-03-27T05:32:09.549Z,556.00
2019-03-27T05:33:09.538Z,556.00
2019-03-27T05:34:09.730Z,552.00
2019-03-27T05:35:09.524Z,608.00
2019-03-27T05:36:09.510Z,744.00
2019-03-27T05:37:09.548Z,680.00
2019-03-27T05:38:09.485Z,752.00
2019-03-27T05:39:09.477Z,840.00
2019-03-27T05:40:09.499Z,936.00
2019-03-27T05:41:09.472Z,800.00
2019-03-27T05:42:09.444Z,652.00
2019-03-27T05:43:09.436Z,696.00
2019-03-27T05:44:09.425Z,780.00
2019-03-27T05:45:09.419Z,860.00
2019-03-27T05:46:09.439Z,912.00
2019-03-27T05:47:09.402Z,940.00
2019-03-27T05:48:09.390Z,988.00
2019-03-27T05:49:09.377Z,980.00
2019-03-27T05:50:09.359Z,940.00
2019-03-27T05:51:09.352Z,892.00
2019-03-27T05:52:09.369Z,928.00
2019-03-27T05:53:09.334Z,1020.00
2019-03-27T05:54:09.326Z,968.00
2019-03-27T05:55:09.315Z,968.00
2019-03-27T05:56:09.299Z,948.00
2019-03-27T05:57:09.308Z,928.00
2019-03-27T05:58:09.283Z,956.00
2019-03-27T05:59:09.286Z,1036.00
2019-03-27T06:00:09.263Z,1064.00
2019-03-27T06:01:09.259Z,956.00
2019-03-27T06:02:09.267Z,1056.00
2019-03-27T06:03:09.228Z,1112.00
2019-03-27T06:04:09.220Z,1224.00
2019-03-27T06:05:09.212Z,1208.00
2019-03-27T06:06:09.202Z,980.00
2019-03-27T06:07:09.192Z,884.00
2019-03-27T06:08:09.205Z,992.00
2019-03-27T06:09:09.191Z,1120.00
2019-03-27T06:10:09.161Z,1260.00
2019-03-27T06:11:09.155Z,1304.00
2019-03-27T06:12:09.145Z,1188.00
2019-03-27T06:13:09.155Z,1332.00
2019-03-27T06:14:09.138Z,1416.00
2019-03-27T06:15:09.108Z,1320.00
2019-03-27T06:16:09.103Z,1136.00
2019-03-27T06:17:09.084Z,1028.00
2019-03-27T06:18:13.268Z,1004.00
2019-03-27T06:19:09.070Z,1036.00
2019-03-27T06:20:09.062Z,1084.00
2019-03-27T06:21:09.052Z,1024.00
2019-03-27T06:22:09.032Z,1068.00
2019-03-27T06:23:09.058Z,1452.00
2019-03-27T06:24:09.020Z,1232.00
2019-03-27T06:25:09.022Z,1588.00
2019-03-27T06:26:09.007Z,1672.00
2019-03-27T06:27:08.985Z,1556.00
2019-03-27T06:28:08.988Z,1528.00
2019-03-27T06:29:08.958Z,1840.00
2019-03-27T06:30:09.030Z,1800.00
2019-03-27T06:31:08.947Z,2404.00
2019-03-27T06:32:08.943Z,2484.00
2019-03-27T06:33:08.939Z,2528.00
2019-03-27T06:34:08.914Z,2692.00
2019-03-27T06:35:08.893Z,2124.00
2019-03-27T06:36:08.885Z,2308.00
2019-03-27T06:37:08.880Z,2912.00
2019-03-27T06:38:08.897Z,2368.00
2019-03-27T06:39:08.868Z,2768.00
2019-03-27T06:40:08.851Z,3248.00
2019-03-27T06:41:08.840Z,3316.00
2019-03-27T06:42:08.828Z,3360.00
2019-03-27T06:43:08.808Z,3616.00
2019-03-27T06:44:08.825Z,3612.00
2019-03-27T06:45:08.797Z,3292.00
2019-03-27T06:46:08.781Z,3492.00
2019-03-27T06:47:08.786Z,4708.00
2019-03-27T06:48:08.759Z,5624.00
2019-03-27T06:49:08.796Z,5836.00
2019-03-27T06:50:08.744Z,6072.00
2019-03-27T06:51:08.737Z,6200.00
2019-03-27T06:52:08.741Z,5904.00
2019-03-27T06:53:08.739Z,6652.00
2019-03-27T06:54:08.708Z,5304.00
2019-03-27T06:55:08.712Z,4672.00
2019-03-27T06:56:08.675Z,4208.00
2019-03-27T06:57:08.666Z,4316.00
2019-03-27T06:58:08.660Z,4700.00
2019-03-27T06:59:08.643Z,4848.00
2019-03-27T07:00:08.690Z,4864.00
2019-03-27T07:01:08.620Z,4684.00
2019-03-27T07:02:08.679Z,6316.00
2019-03-27T07:03:08.606Z,5932.00
2019-03-27T07:04:10.729Z,5448.00
2019-03-27T07:05:08.579Z,6152.00
2019-03-27T07:06:08.585Z,7788.00
2019-03-27T07:07:08.551Z,7996.00
2019-03-27T07:08:08.543Z,8132.00
2019-03-27T07:09:08.563Z,7332.00
2019-03-27T07:10:08.528Z,7300.00
2019-03-27T07:11:08.516Z,7808.00
2019-03-27T07:12:20.422Z,8696.00
2019-03-27T07:13:09.496Z,7072.00
2019-03-27T07:14:08.497Z,6632.00
2019-03-27T07:15:08.483Z,6112.00
2019-03-27T07:16:08.474Z,7376.00
2019-03-27T07:17:08.453Z,7520.00
2019-03-27T07:18:08.442Z,7928.00
2019-03-27T07:19:08.451Z,7116.00
2019-03-27T07:20:08.423Z,8352.00
2019-03-27T07:21:08.404Z,10444.00
2019-03-27T07:22:08.433Z,9948.00
2019-03-27T07:23:08.403Z,10124.00
2019-03-27T07:24:08.395Z,10576.00
2019-03-27T07:25:08.371Z,11184.00
2019-03-27T07:26:08.359Z,12768.00
2019-03-27T07:27:08.350Z,11376.00
2019-03-27T07:28:08.364Z,10780.00
2019-03-27T07:29:08.324Z,12372.00
2019-03-27T07:30:08.336Z,12204.00
2019-03-27T07:31:08.306Z,10788.00
2019-03-27T07:32:08.298Z,10784.00
2019-03-27T07:33:08.287Z,9800.00
2019-03-27T07:34:08.275Z,9312.00
2019-03-27T07:35:08.298Z,10516.00
2019-03-27T07:36:08.262Z,11136.00
2019-03-27T07:37:08.241Z,10712.00
2019-03-27T07:38:08.231Z,11872.00
2019-03-27T07:39:11.137Z,12128.00
2019-03-27T07:40:08.213Z,11260.00
2019-03-27T07:41:08.215Z,11568.00
2019-03-27T07:42:08.263Z,12420.00
2019-03-27T07:43:08.181Z,11916.00
2019-03-27T07:44:08.187Z,11508.00
2019-03-27T07:45:08.165Z,12296.00
2019-03-27T07:46:08.150Z,13396.00
2019-03-27T07:47:08.139Z,13640.00
2019-03-27T07:48:09.122Z,13476.00
2019-03-27T07:49:08.146Z,12656.00
2019-03-27T07:50:08.105Z,11952.00
2019-03-27T07:51:08.087Z,11456.00
2019-03-27T07:52:08.075Z,11356.00
2019-03-27T07:53:08.072Z,11736.00
2019-03-27T07:54:08.089Z,12144.00
2019-03-27T07:55:18.748Z,12268.00
2019-03-27T07:56:09.043Z,12344.00
2019-03-27T07:57:08.054Z,12084.00
2019-03-27T07:58:08.017Z,11672.00
2019-03-27T07:59:08.016Z,11712.00
2019-03-27T08:00:08.002Z,11828.00
2019-03-27T08:01:07.989Z,11912.00
2019-03-27T08:02:08.010Z,11916.00
2019-03-27T08:03:07.969Z,11728.00
2019-03-27T08:04:07.990Z,11088.00
2019-03-27T08:05:07.944Z,10548.00
2019-03-27T08:06:07.941Z,10412.00
2019-03-27T08:07:07.944Z,10196.00
2019-03-27T08:08:07.958Z,9752.00
2019-03-27T08:09:07.918Z,9412.00
2019-03-27T08:10:07.982Z,9532.00
2019-03-27T08:11:07.885Z,9496.00
2019-03-27T08:12:07.900Z,9060.00
2019-03-27T08:13:07.882Z,9380.00
2019-03-27T08:14:07.857Z,9956.00
2019-03-27T08:15:07.840Z,10568.00
2019-03-27T08:16:07.830Z,11708.00
2019-03-27T08:17:07.830Z,12020.00
2019-03-27T08:18:07.840Z,12460.00
2019-03-27T08:19:08.285Z,12468.00
2019-03-27T08:20:07.789Z,11748.00
2019-03-27T08:21:07.779Z,11352.00
2019-03-27T08:22:07.760Z,11220.00
2019-03-27T08:23:07.782Z,11400.00
2019-03-27T08:24:07.739Z,11684.00
2019-03-27T08:25:07.730Z,11864.00
2019-03-27T08:26:07.730Z,11288.00
2019-03-27T08:27:07.711Z,11116.00
2019-03-27T08:28:07.700Z,10744.00
2019-03-27T08:29:07.803Z,11104.00
2019-03-27T08:30:07.678Z,11712.00
2019-03-27T08:31:07.665Z,12204.00
2019-03-27T08:32:07.652Z,12252.00
2019-03-27T08:33:07.640Z,12860.00
2019-03-27T08:34:07.665Z,13292.00
2019-03-27T08:35:07.625Z,13928.00
2019-03-27T08:36:07.616Z,14432.00
2019-03-27T08:37:07.601Z,14828.00
2019-03-27T08:38:07.591Z,15976.00
2019-03-27T08:39:07.611Z,16344.00
2019-03-27T08:40:07.586Z,16032.00
2019-03-27T08:41:07.566Z,13908.00
2019-03-27T08:42:07.543Z,11860.00
2019-03-27T08:43:20.689Z,11312.00
2019-03-27T08:44:08.544Z,12360.00
2019-03-27T08:45:07.535Z,15680.00
2019-03-27T08:46:07.516Z,15480.00
2019-03-27T08:47:07.501Z,13432.00
2019-03-27T08:48:07.487Z,13264.00
2019-03-27T08:49:20.760Z,13876.00
2019-03-27T08:50:08.478Z,13184.00
2019-03-27T08:51:07.449Z,11260.00
2019-03-27T08:52:07.454Z,9096.00
2019-03-27T08:53:07.447Z,9480.00
2019-03-27T08:54:07.424Z,10764.00
2019-03-27T08:55:07.432Z,11792.00
2019-03-27T08:56:07.408Z,12728.00
2019-03-27T08:57:07.389Z,12308.00
2019-03-27T08:58:07.380Z,11212.00
2019-03-27T08:59:07.383Z,9308.00
2019-03-27T09:00:07.389Z,8728.00
2019-03-27T09:01:07.367Z,9460.00
2019-03-27T09:02:07.335Z,10860.00
2019-03-27T09:03:07.323Z,9848.00
2019-03-27T09:04:07.318Z,7788.00
2019-03-27T09:05:07.328Z,8648.00
2019-03-27T09:06:07.310Z,10156.00
2019-03-27T09:07:07.287Z,9276.00
2019-03-27T09:08:07.277Z,8120.00
2019-03-27T09:09:07.258Z,10012.00
2019-03-27T09:10:07.315Z,11888.00
2019-03-27T09:11:07.270Z,11776.00
2019-03-27T09:12:07.243Z,11944.00
2019-03-27T09:13:07.223Z,11968.00
2019-03-27T09:14:07.220Z,11824.00
2019-03-27T09:15:07.221Z,12404.00
2019-03-27T09:16:07.183Z,14608.00
2019-03-27T09:17:07.237Z,14752.00
2019-03-27T09:18:07.167Z,15184.00
2019-03-27T09:19:07.159Z,11120.00
2019-03-27T09:20:07.165Z,8148.00
2019-03-27T09:21:07.142Z,7800.00
2019-03-27T09:22:07.125Z,8924.00
2019-03-27T09:23:07.113Z,9364.00
2019-03-27T09:24:07.103Z,8680.00
2019-03-27T09:25:07.113Z,8772.00
2019-03-27T09:26:07.075Z,9980.00
2019-03-27T09:27:07.069Z,13676.00
2019-03-27T09:28:07.055Z,13564.00
2019-03-27T09:29:08.572Z,14428.00
2019-03-27T09:30:07.066Z,15840.00
2019-03-27T09:31:07.049Z,20768.00
2019-03-27T09:32:07.052Z,24704.00
2019-03-27T09:33:07.013Z,35872.00
2019-03-27T09:34:06.993Z,70848.00
2019-03-27T09:35:06.994Z,84992.00
2019-03-27T09:36:07.118Z,97984.00
2019-03-27T09:37:06.959Z,83104.00
2019-03-27T09:38:06.954Z,47936.00
2019-03-27T09:39:06.944Z,41408.00
2019-03-27T09:40:06.933Z,59392.00
2019-03-27T09:41:06.957Z,28256.00
2019-03-27T09:42:06.912Z,24384.00
2019-03-27T09:43:06.901Z,19488.00
2019-03-27T09:44:06.924Z,16828.00
2019-03-27T09:45:06.883Z,16444.00
2019-03-27T09:46:06.864Z,16256.00
2019-03-27T09:47:06.904Z,19616.00
2019-03-27T09:48:06.846Z,16572.00
2019-03-27T09:49:06.839Z,15208.00
2019-03-27T09:50:06.829Z,15756.00
2019-03-27T09:51:06.819Z,16216.00
2019-03-27T09:52:06.830Z,15420.00
2019-03-27T09:53:06.799Z,13948.00
2019-03-27T09:54:06.779Z,13484.00
2019-03-27T09:55:06.768Z,13320.00
2019-03-27T09:56:18.428Z,14572.00
2019-03-27T09:57:07.782Z,14956.00
2019-03-27T09:58:06.739Z,14412.00
2019-03-27T09:59:06.731Z,13700.00
2019-03-27T10:00:06.720Z,14136.00
2019-03-27T10:01:06.705Z,13568.00
2019-03-27T10:02:06.726Z,13212.00
2019-03-27T10:03:06.713Z,10896.00
2019-03-27T10:04:06.679Z,10748.00
2019-03-27T10:05:06.670Z,11280.00
2019-03-27T10:06:06.671Z,10268.00
2019-03-27T10:07:06.646Z,9940.00
2019-03-27T10:08:06.632Z,10552.00
2019-03-27T10:09:06.642Z,9820.00
2019-03-27T10:10:06.630Z,9780.00
2019-03-27T10:11:06.606Z,10844.00
2019-03-27T10:12:06.594Z,10444.00
2019-03-27T10:13:06.578Z,9216.00
2019-03-27T10:14:06.594Z,8036.00
2019-03-27T10:15:06.565Z,7528.00
2019-03-27T10:16:06.551Z,8848.00
2019-03-27T10:17:06.544Z,9972.00
2019-03-27T10:18:06.531Z,10196.00
2019-03-27T10:19:06.535Z,10500.00
2019-03-27T10:20:06.504Z,10416.00
2019-03-27T10:21:06.502Z,11028.00
2019-03-27T10:22:06.490Z,12168.00
2019-03-27T10:23:06.481Z,12256.00
2019-03-27T10:24:06.491Z,13292.00
2019-03-27T10:25:06.456Z,16116.00
2019-03-27T10:26:06.447Z,14680.00
2019-03-27T10:27:06.444Z,13220.00
2019-03-27T10:28:06.431Z,12792.00
2019-03-27T10:29:06.437Z,12280.00
2019-03-27T10:30:06.420Z,12264.00
2019-03-27T10:31:06.390Z,15080.00
2019-03-27T10:32:06.468Z,16400.00
2019-03-27T10:33:06.367Z,14224.00
2019-03-27T10:34:06.407Z,14996.00
2019-03-27T10:35:06.358Z,15492.00
2019-03-27T10:36:06.345Z,13444.00
2019-03-27T10:37:06.369Z,12352.00
2019-03-27T10:38:06.319Z,13512.00
2019-03-27T10:39:06.302Z,13044.00
2019-03-27T10:40:06.311Z,12912.00
2019-03-27T10:41:06.300Z,13204.00
2019-03-27T10:42:06.281Z,13024.00
2019-03-27T10:43:06.276Z,11324.00
2019-03-27T10:44:06.255Z,10160.00
2019-03-27T10:45:06.275Z,9640.00
2019-03-27T10:46:06.240Z,8612.00
2019-03-27T10:47:06.226Z,8540.00
2019-03-27T10:48:06.216Z,9140.00
2019-03-27T10:49:06.205Z,10884.00
2019-03-27T10:50:17.075Z,12900.00
2019-03-27T10:51:07.200Z,12796.00
2019-03-27T10:52:06.170Z,12804.00
2019-03-27T10:53:06.154Z,13500.00
2019-03-27T10:54:06.149Z,13776.00
2019-03-27T10:55:06.150Z,16516.00
2019-03-27T10:56:06.145Z,18368.00
2019-03-27T10:57:06.128Z,15112.00
2019-03-27T10:58:06.098Z,11600.00
2019-03-27T10:59:06.090Z,11708.00
2019-03-27T11:00:06.093Z,11924.00
2019-03-27T11:01:07.459Z,12100.00
2019-03-27T11:02:06.063Z,13444.00
2019-03-27T11:03:06.054Z,16464.00
2019-03-27T11:04:06.042Z,21664.00
2019-03-27T11:05:06.031Z,16012.00
2019-03-27T11:06:06.030Z,11916.00
2019-03-27T11:07:06.035Z,10240.00
2019-03-27T11:08:06.005Z,10336.00
2019-03-27T11:09:05.995Z,12980.00
2019-03-27T11:10:06.800Z,14772.00
2019-03-27T11:11:05.966Z,14844.00
2019-03-27T11:12:05.985Z,13948.00
2019-03-27T11:13:05.945Z,12320.00
2019-03-27T11:14:05.951Z,12180.00
2019-03-27T11:15:05.927Z,11796.00
2019-03-27T11:16:05.913Z,11476.00
2019-03-27T11:17:05.901Z,11876.00
2019-03-27T11:18:05.917Z,12036.00
2019-03-27T11:19:05.888Z,11828.00
2019-03-27T11:20:05.885Z,11064.00
2019-03-27T11:21:05.893Z,10936.00
2019-03-27T11:22:05.857Z,12756.00
2019-03-27T11:23:05.862Z,13204.00
2019-03-27T11:24:05.832Z,12996.00
2019-03-27T11:25:05.830Z,13516.00
2019-03-27T11:26:05.818Z,13032.00
2019-03-27T11:27:05.830Z,11208.00
2019-03-27T11:28:05.797Z,10756.00
2019-03-27T11:29:05.800Z,12388.00
2019-03-27T11:30:05.765Z,12620.00
2019-03-27T11:31:05.815Z,12924.00
2019-03-27T11:32:05.757Z,12760.00
2019-03-27T11:33:05.754Z,10700.00
2019-03-27T11:34:05.746Z,9640.00
2019-03-27T11:35:05.710Z,8648.00
2019-03-27T11:36:05.699Z,8192.00
2019-03-27T11:37:05.691Z,8192.00
2019-03-27T11:38:05.688Z,8792.00
2019-03-27T11:39:05.696Z,8560.00
2019-03-27T11:40:05.663Z,10368.00
2019-03-27T11:41:05.677Z,12704.00
2019-03-27T11:42:05.644Z,13780.00
2019-03-27T11:43:05.634Z,16144.00
2019-03-27T11:44:05.643Z,18048.00
2019-03-27T11:45:05.616Z,14788.00
2019-03-27T11:46:05.602Z,14776.00
2019-03-27T11:47:05.594Z,13912.00
2019-03-27T11:48:08.074Z,13704.00
2019-03-27T11:49:05.607Z,14648.00
2019-03-27T11:50:05.556Z,14320.00
2019-03-27T11:51:05.542Z,13376.00
2019-03-27T11:52:05.535Z,13620.00
2019-03-27T11:53:05.538Z,13136.00
2019-03-27T11:54:05.527Z,11628.00
2019-03-27T11:55:05.534Z,10576.00
2019-03-27T11:56:05.501Z,10348.00
2019-03-27T11:57:05.485Z,11412.00
2019-03-27T11:58:05.492Z,11868.00
2019-03-27T11:59:05.493Z,11504.00
2019-03-27T12:00:05.452Z,12760.00
2019-03-27T12:01:05.457Z,14528.00
2019-03-27T12:02:05.438Z,13020.00
2019-03-27T12:03:05.424Z,10268.00
2019-03-27T12:04:05.415Z,11656.00
2019-03-27T12:05:05.423Z,16464.00
2019-03-27T12:06:05.392Z,16232.00
2019-03-27T12:07:05.409Z,14884.00
2019-03-27T12:08:05.380Z,18176.00
2019-03-27T12:09:05.363Z,25664.00
2019-03-27T12:10:05.413Z,33280.00
2019-03-27T12:11:05.343Z,48320.00
2019-03-27T12:12:05.330Z,30208.00
2019-03-27T12:13:05.319Z,25472.00
2019-03-27T12:14:05.311Z,32256.00
2019-03-27T12:15:05.335Z,52128.00
2019-03-27T12:16:05.297Z,51072.00
2019-03-27T12:17:05.292Z,42624.00
2019-03-27T12:18:05.262Z,40928.00
2019-03-27T12:19:05.265Z,32704.00
2019-03-27T12:20:05.243Z,21408.00
2019-03-27T12:21:05.251Z,17284.00
2019-03-27T12:22:05.219Z,14544.00
2019-03-27T12:23:05.205Z,11212.00
2019-03-27T12:24:05.205Z,11380.00
2019-03-27T12:25:05.205Z,12572.00
2019-03-27T12:26:05.208Z,12232.00